createdAt,value
2023-03-03T00:00:47.701Z,0.00
2023-03-03T00:01:42.834Z,0.00
2023-03-03T00:02:38.181Z,0.00
2023-03-03T00:03:33.505Z,0.00
2023-03-03T00:04:28.741Z,0.00
2023-03-03T00:05:23.776Z,0.00
2023-03-03T00:06:18.983Z,0.00
2023-03-03T00:07:14.144Z,0.00
2023-03-03T00:08:09.434Z,0.00
2023-03-03T00:09:04.485Z,0.00
2023-03-03T00:09:59.747Z,0.00
2023-03-03T00:10:54.943Z,0.00
2023-03-03T00:11:50.226Z,0.00
2023-03-03T00:12:45.323Z,0.00
2023-03-03T00:13:40.684Z,0.00
2023-03-03T00:14:35.710Z,0.00
2023-03-03T00:15:31.001Z,0.00
2023-03-03T00:16:26.234Z,0.00
2023-03-03T00:17:21.508Z,0.00
2023-03-03T00:18:16.792Z,0.00
2023-03-03T00:19:11.977Z,0.00
2023-03-03T00:20:07.110Z,0.00
2023-03-03T00:21:02.439Z,0.00
2023-03-03T00:21:57.415Z,0.00
2023-03-03T00:22:52.684Z,0.00
2023-03-03T00:23:47.830Z,0.00
2023-03-03T00:24:43.122Z,0.00
2023-03-03T00:25:38.270Z,0.00
2023-03-03T00:26:33.546Z,0.00
2023-03-03T00:27:28.716Z,0.00
2023-03-03T00:28:24.317Z,0.00
2023-03-03T00:29:19.339Z,0.00
2023-03-03T00:30:14.535Z,0.00
2023-03-03T00:31:09.692Z,0.00
2023-03-03T00:32:04.924Z,0.00
2023-03-03T00:33:00.045Z,0.00
2023-03-03T00:33:55.306Z,0.00
2023-03-03T00:34:50.466Z,0.00
2023-03-03T00:35:45.809Z,0.00
2023-03-03T00:36:40.891Z,0.00
2023-03-03T00:37:36.183Z,0.00
2023-03-03T00:38:31.490Z,0.00
2023-03-03T00:39:26.523Z,0.00
2023-03-03T00:40:21.666Z,0.00
2023-03-03T00:41:16.846Z,0.00
2023-03-03T00:42:11.989Z,0.00
2023-03-03T00:43:07.268Z,0.00
2023-03-03T00:44:02.561Z,0.00
2023-03-03T00:44:57.836Z,0.00
2023-03-03T00:45:52.861Z,0.00
2023-03-03T00:46:48.104Z,0.00
2023-03-03T00:47:43.251Z,0.00
2023-03-03T00:48:38.824Z,0.00
2023-03-03T00:49:33.702Z,0.00
2023-03-03T00:50:29.038Z,0.00
2023-03-03T00:51:24.192Z,0.00
2023-03-03T00:52:19.474Z,0.00
2023-03-03T00:54:38.728Z,0.00
2023-03-03T00:55:33.788Z,0.00
2023-03-03T00:56:28.939Z,0.00
2023-03-03T00:57:24.134Z,0.00
2023-03-03T00:58:19.386Z,0.00
2023-03-03T00:59:14.574Z,0.00
2023-03-03T01:00:09.935Z,0.00
2023-03-03T01:01:04.969Z,0.00
2023-03-03T01:02:00.201Z,0.00
2023-03-03T01:02:55.408Z,0.00
2023-03-03T01:03:50.551Z,0.00
2023-03-03T01:04:45.983Z,0.00
2023-03-03T01:05:41.124Z,0.00
2023-03-03T01:06:36.284Z,0.00
2023-03-03T01:07:31.453Z,0.00
2023-03-03T01:08:26.734Z,0.00
2023-03-03T01:09:21.895Z,0.00
2023-03-03T01:10:17.101Z,0.00
2023-03-03T01:11:12.278Z,0.00
2023-03-03T01:12:07.707Z,0.00
2023-03-03T01:13:02.617Z,0.00
2023-03-03T01:13:57.817Z,0.00
2023-03-03T01:14:53.171Z,0.00
2023-03-03T01:15:48.632Z,0.00
2023-03-03T01:16:43.379Z,0.00
2023-03-03T01:17:38.556Z,0.00
2023-03-03T01:18:33.701Z,0.00
2023-03-03T01:19:29.008Z,0.00
2023-03-03T01:20:24.291Z,0.00
2023-03-03T01:21:19.470Z,0.00
2023-03-03T01:22:14.614Z,0.00
2023-03-03T01:23:10.697Z,0.00
2023-03-03T01:24:05.003Z,0.00
2023-03-03T01:25:00.473Z,0.00
2023-03-03T01:25:55.496Z,0.00
2023-03-03T01:26:50.827Z,0.00
2023-03-03T01:27:46.092Z,0.00
2023-03-03T01:28:41.264Z,0.00
2023-03-03T01:29:36.485Z,0.00
2023-03-03T01:30:31.665Z,0.00
2023-03-03T01:31:26.991Z,0.00
2023-03-03T01:32:22.151Z,0.00
2023-03-03T01:33:17.389Z,0.00
2023-03-03T01:34:12.421Z,0.00
2023-03-03T01:35:07.699Z,0.00
2023-03-03T01:36:02.869Z,0.00
2023-03-03T01:36:58.016Z,0.00
2023-03-03T01:37:53.205Z,0.00
2023-03-03T01:38:48.461Z,0.00
2023-03-03T01:39:43.624Z,0.00
2023-03-03T01:40:38.791Z,0.00
2023-03-03T01:41:33.957Z,0.00
2023-03-03T01:42:29.260Z,0.00
2023-03-03T01:43:24.378Z,0.00
2023-03-03T01:44:19.658Z,0.00
2023-03-03T01:45:14.938Z,0.00
2023-03-03T01:46:09.983Z,0.00
2023-03-03T01:47:05.246Z,0.00
2023-03-03T01:48:00.405Z,0.00
2023-03-03T01:48:55.690Z,0.00
2023-03-03T01:49:50.962Z,0.00
2023-03-03T01:50:46.022Z,0.00
2023-03-03T01:51:41.181Z,0.00
2023-03-03T01:52:36.492Z,0.00
2023-03-03T01:53:31.662Z,0.00
2023-03-03T01:54:26.844Z,0.00
2023-03-03T01:55:22.129Z,0.00
2023-03-03T01:56:17.324Z,0.00
2023-03-03T01:57:12.459Z,0.00
2023-03-03T01:58:07.640Z,0.00
2023-03-03T01:59:02.937Z,0.00
2023-03-03T01:59:57.958Z,0.00
2023-03-03T02:00:53.136Z,0.00
2023-03-03T02:01:48.465Z,0.00
2023-03-03T02:02:43.647Z,0.00
2023-03-03T02:03:38.885Z,0.00
2023-03-03T02:04:34.028Z,0.00
2023-03-03T02:05:29.445Z,0.00
2023-03-03T02:06:24.590Z,0.00
2023-03-03T02:07:19.795Z,0.00
2023-03-03T02:08:15.080Z,0.00
2023-03-03T02:09:10.215Z,0.00
2023-03-03T02:10:05.410Z,0.00
2023-03-03T02:11:00.572Z,0.00
2023-03-03T02:11:55.691Z,0.00
2023-03-03T02:12:50.996Z,0.00
2023-03-03T02:13:46.171Z,0.00
2023-03-03T02:14:41.337Z,0.00
2023-03-03T02:15:36.629Z,0.00
2023-03-03T02:16:31.869Z,0.00
2023-03-03T02:17:26.883Z,0.00
2023-03-03T02:18:22.125Z,0.00
2023-03-03T02:19:17.286Z,0.00
2023-03-03T02:20:12.432Z,0.00
2023-03-03T02:21:07.643Z,0.00
2023-03-03T02:22:02.762Z,0.00
2023-03-03T02:22:58.072Z,0.00
2023-03-03T02:23:53.334Z,0.00
2023-03-03T02:24:48.499Z,0.00
2023-03-03T02:25:43.795Z,0.00
2023-03-03T02:26:38.844Z,0.00
2023-03-03T02:27:33.965Z,0.00
2023-03-03T02:28:29.139Z,0.00
2023-03-03T02:29:24.302Z,0.00
2023-03-03T02:30:19.511Z,0.00
2023-03-03T02:31:14.708Z,0.00
2023-03-03T02:32:09.847Z,0.00
2023-03-03T02:33:05.102Z,0.00
2023-03-03T02:34:00.339Z,0.00
2023-03-03T02:34:55.343Z,0.00
2023-03-03T02:35:50.658Z,0.00
2023-03-03T02:38:13.196Z,0.00
2023-03-03T02:39:08.245Z,0.00
2023-03-03T02:40:03.416Z,0.00
2023-03-03T02:40:58.619Z,0.00
2023-03-03T02:41:53.776Z,0.00
2023-03-03T02:42:48.895Z,0.00
2023-03-03T02:43:44.083Z,0.00
2023-03-03T02:44:39.235Z,0.00
2023-03-03T02:45:34.543Z,0.00
2023-03-03T02:46:29.564Z,0.00
2023-03-03T02:47:24.857Z,0.00
2023-03-03T02:48:20.131Z,0.00
2023-03-03T02:49:15.389Z,0.00
2023-03-03T02:50:10.532Z,0.00
2023-03-03T02:51:05.787Z,0.00
2023-03-03T02:52:00.912Z,0.00
2023-03-03T02:52:56.208Z,0.00
2023-03-03T02:53:51.354Z,0.00
2023-03-03T02:54:46.641Z,0.00
2023-03-03T02:55:41.763Z,0.00
2023-03-03T02:56:37.053Z,0.00
2023-03-03T02:57:32.184Z,0.00
2023-03-03T02:58:27.500Z,0.00
2023-03-03T02:59:22.663Z,0.00
2023-03-03T03:00:17.973Z,0.00
2023-03-03T03:01:13.058Z,0.00
2023-03-03T03:02:08.216Z,0.00
2023-03-03T03:03:03.386Z,0.00
2023-03-03T03:03:58.627Z,0.00
2023-03-03T03:04:53.763Z,0.00
2023-03-03T03:05:49.066Z,0.00
2023-03-03T03:06:44.391Z,0.00
2023-03-03T03:07:39.460Z,0.00
2023-03-03T03:08:34.726Z,0.00
2023-03-03T03:09:29.929Z,0.00
2023-03-03T03:10:25.079Z,0.00
2023-03-03T03:11:20.266Z,0.00
2023-03-03T03:12:15.414Z,0.00
2023-03-03T03:13:10.560Z,0.00
2023-03-03T03:14:05.729Z,0.00
2023-03-03T03:15:00.985Z,0.00
2023-03-03T03:15:56.114Z,0.00
2023-03-03T03:16:51.342Z,0.00
2023-03-03T03:17:46.523Z,0.00
2023-03-03T03:18:41.917Z,0.00
2023-03-03T03:19:36.941Z,0.00
2023-03-03T03:20:32.316Z,0.00
2023-03-03T03:21:27.603Z,0.00
2023-03-03T03:22:22.752Z,0.00
2023-03-03T03:23:17.905Z,0.00
2023-03-03T03:24:13.060Z,0.00
2023-03-03T03:25:08.178Z,0.00
2023-03-03T03:26:03.471Z,0.00
2023-03-03T03:28:25.390Z,0.00
2023-03-03T03:29:18.687Z,0.00
2023-03-03T03:30:13.840Z,0.00
2023-03-03T03:31:09.171Z,0.00
2023-03-03T03:32:04.248Z,0.00
2023-03-03T03:32:59.499Z,0.00
2023-03-03T03:33:54.526Z,0.00
2023-03-03T03:34:49.799Z,0.00
2023-03-03T03:35:44.995Z,0.00
2023-03-03T03:36:40.159Z,0.00
2023-03-03T03:37:35.281Z,0.00
2023-03-03T03:38:30.852Z,0.00
2023-03-03T03:39:26.219Z,0.00
2023-03-03T03:40:20.997Z,0.00
2023-03-03T03:41:16.120Z,0.00
2023-03-03T03:42:11.459Z,0.00
2023-03-03T03:43:06.688Z,0.00
2023-03-03T03:44:01.845Z,0.00
2023-03-03T03:44:57.023Z,0.00
2023-03-03T03:45:52.285Z,0.00
2023-03-03T03:46:47.436Z,0.00
2023-03-03T03:47:42.726Z,0.00
2023-03-03T03:48:37.872Z,0.00
2023-03-03T03:49:32.889Z,0.00
2023-03-03T03:50:28.055Z,0.00
2023-03-03T03:51:23.265Z,0.00
2023-03-03T03:52:18.436Z,0.00
2023-03-03T03:53:13.725Z,0.00
2023-03-03T03:54:08.882Z,0.00
2023-03-03T03:55:04.209Z,0.00
2023-03-03T03:55:59.317Z,0.00
2023-03-03T03:56:54.635Z,0.00
2023-03-03T03:57:49.663Z,0.00
2023-03-03T03:58:44.999Z,0.00
2023-03-03T03:59:40.045Z,0.00
2023-03-03T04:00:35.197Z,0.00
2023-03-03T04:01:30.363Z,0.00
2023-03-03T04:02:25.748Z,0.00
2023-03-03T04:03:20.868Z,0.00
2023-03-03T04:04:16.017Z,0.00
2023-03-03T04:05:11.239Z,0.00
2023-03-03T04:06:06.395Z,0.00
2023-03-03T04:07:01.551Z,0.00
2023-03-03T04:07:56.865Z,0.00
2023-03-03T04:08:52.220Z,0.00
2023-03-03T04:09:47.282Z,0.00
2023-03-03T04:10:42.456Z,0.00
2023-03-03T04:11:37.646Z,0.00
2023-03-03T04:12:32.791Z,0.00
2023-03-03T04:13:28.087Z,0.00
2023-03-03T04:14:23.318Z,0.00
2023-03-03T04:15:18.476Z,0.00
2023-03-03T04:16:13.666Z,0.00
2023-03-03T04:17:08.858Z,0.00
2023-03-03T04:18:04.057Z,0.00
2023-03-03T04:18:59.506Z,0.00
2023-03-03T04:19:54.662Z,0.00
2023-03-03T04:20:49.850Z,0.00
2023-03-03T04:21:45.067Z,0.00
2023-03-03T04:22:40.223Z,0.00
2023-03-03T04:23:35.477Z,0.00
2023-03-03T04:24:30.706Z,0.00
2023-03-03T04:25:25.976Z,0.00
2023-03-03T04:26:21.073Z,0.00
2023-03-03T04:27:16.236Z,0.00
2023-03-03T04:28:11.543Z,0.00
2023-03-03T04:29:06.813Z,0.00
2023-03-03T04:30:02.027Z,0.00
2023-03-03T04:32:21.228Z,0.00
2023-03-03T04:33:16.287Z,0.00
2023-03-03T04:34:11.572Z,0.00
2023-03-03T04:35:08.489Z,0.00
2023-03-03T04:36:02.062Z,0.00
2023-03-03T04:36:57.220Z,0.00
2023-03-03T04:37:52.402Z,0.00
2023-03-03T04:38:47.549Z,0.00
2023-03-03T04:39:42.878Z,0.00
2023-03-03T04:40:37.877Z,0.00
2023-03-03T04:41:33.183Z,0.00
2023-03-03T04:42:28.364Z,0.00
2023-03-03T04:43:23.542Z,0.00
2023-03-03T04:44:18.735Z,0.00
2023-03-03T04:45:13.917Z,0.00
2023-03-03T04:46:09.177Z,0.00
2023-03-03T04:47:04.352Z,0.00
2023-03-03T04:47:59.630Z,0.00
2023-03-03T04:48:54.668Z,0.00
2023-03-03T04:49:49.934Z,0.00
2023-03-03T04:50:45.234Z,0.00
2023-03-03T04:51:40.376Z,0.00
2023-03-03T04:52:35.664Z,0.00
2023-03-03T04:53:30.802Z,0.00
2023-03-03T04:54:25.966Z,0.00
2023-03-03T04:55:21.180Z,0.00
2023-03-03T04:56:16.375Z,0.00
2023-03-03T04:57:11.524Z,0.00
2023-03-03T04:59:32.969Z,0.00
2023-03-03T05:00:27.869Z,0.00
2023-03-03T05:01:23.268Z,0.00
2023-03-03T05:02:18.455Z,0.00
2023-03-03T05:03:13.617Z,0.00
2023-03-03T05:04:08.729Z,0.00
2023-03-03T05:05:03.947Z,0.00
2023-03-03T05:05:59.245Z,0.00
2023-03-03T05:06:54.410Z,0.00
2023-03-03T05:07:49.567Z,0.00
2023-03-03T05:08:44.873Z,0.00
2023-03-03T05:09:40.132Z,0.00
2023-03-03T05:10:35.337Z,0.00
2023-03-03T05:12:59.682Z,0.00
2023-03-03T05:13:54.716Z,0.00
2023-03-03T05:14:50.022Z,0.00
2023-03-03T05:15:45.264Z,0.00
2023-03-03T05:16:40.454Z,0.00
2023-03-03T05:17:35.623Z,0.00
2023-03-03T05:18:30.924Z,0.00
2023-03-03T05:19:25.963Z,0.00
2023-03-03T05:20:21.184Z,0.00
2023-03-03T05:21:16.404Z,0.00
2023-03-03T05:22:13.210Z,0.00
2023-03-03T05:23:07.410Z,0.00
2023-03-03T05:24:02.085Z,0.00
2023-03-03T05:24:57.223Z,0.00
2023-03-03T05:25:52.834Z,0.00
2023-03-03T05:26:47.690Z,0.00
2023-03-03T05:27:42.987Z,0.00
2023-03-03T05:28:38.171Z,0.00
2023-03-03T05:29:34.376Z,0.00
2023-03-03T05:30:28.705Z,0.00
2023-03-03T05:31:24.021Z,0.00
2023-03-03T05:32:19.147Z,0.00
2023-03-03T05:33:14.353Z,0.00
2023-03-03T05:34:09.412Z,0.00
2023-03-03T05:35:04.716Z,0.00
2023-03-03T05:36:00.037Z,0.00
2023-03-03T05:36:55.196Z,0.00
2023-03-03T05:37:50.357Z,0.00
2023-03-03T05:38:45.686Z,0.00
2023-03-03T05:39:40.709Z,0.00
2023-03-03T05:40:35.888Z,0.00
2023-03-03T05:41:31.171Z,0.00
2023-03-03T05:42:26.382Z,0.00
2023-03-03T05:43:21.668Z,0.00
2023-03-03T05:44:17.874Z,0.00
2023-03-03T05:45:12.073Z,0.00
2023-03-03T05:46:07.403Z,0.00
2023-03-03T05:47:02.723Z,0.00
2023-03-03T05:47:58.118Z,0.00
2023-03-03T05:48:53.235Z,0.00
2023-03-03T05:49:48.601Z,0.00
2023-03-03T05:50:43.864Z,0.00
2023-03-03T05:51:39.085Z,0.00
2023-03-03T05:52:34.325Z,0.00
2023-03-03T05:53:29.703Z,0.00
2023-03-03T05:54:24.795Z,0.00
2023-03-03T05:55:20.054Z,0.00
2023-03-03T05:56:15.283Z,0.00
2023-03-03T05:57:10.656Z,0.00
2023-03-03T05:58:05.708Z,0.00
2023-03-03T05:59:00.983Z,0.00
2023-03-03T05:59:56.248Z,0.00
2023-03-03T06:00:51.461Z,0.00
2023-03-03T06:01:46.746Z,5.00
2023-03-03T06:02:42.395Z,5.00
2023-03-03T06:03:37.440Z,5.00
2023-03-03T06:04:32.638Z,5.00
2023-03-03T06:05:27.925Z,5.00
2023-03-03T06:06:23.231Z,5.00
2023-03-03T06:07:18.506Z,5.00
2023-03-03T06:08:13.861Z,5.00
2023-03-03T06:09:09.134Z,5.00
2023-03-03T06:10:04.477Z,5.00
2023-03-03T06:10:59.878Z,11.00
2023-03-03T06:11:55.314Z,11.00
2023-03-03T06:12:50.614Z,11.00
2023-03-03T06:13:46.160Z,11.00
2023-03-03T06:14:41.428Z,11.00
2023-03-03T06:15:36.826Z,16.00
2023-03-03T06:16:32.268Z,16.00
2023-03-03T06:17:27.684Z,16.00
2023-03-03T06:18:23.087Z,16.00
2023-03-03T06:19:18.524Z,16.00
2023-03-03T06:20:14.589Z,16.00
2023-03-03T06:21:09.324Z,22.00
2023-03-03T06:22:04.696Z,22.00
2023-03-03T06:23:00.082Z,22.00
2023-03-03T06:23:55.654Z,22.00
2023-03-03T06:24:50.938Z,22.00
2023-03-03T06:25:46.323Z,22.00
2023-03-03T06:26:41.736Z,22.00
2023-03-03T06:27:37.685Z,28.00
2023-03-03T06:28:32.548Z,28.00
2023-03-03T06:29:27.841Z,28.00
2023-03-03T06:30:23.261Z,33.00
2023-03-03T06:31:18.665Z,33.00
2023-03-03T06:32:14.188Z,33.00
2023-03-03T06:33:09.382Z,33.00
2023-03-03T06:34:04.924Z,33.00
2023-03-03T06:35:00.266Z,39.00
2023-03-03T06:35:55.566Z,39.00
2023-03-03T06:36:50.843Z,39.00
2023-03-03T06:37:46.220Z,33.00
2023-03-03T06:38:41.578Z,33.00
2023-03-03T06:39:37.053Z,39.00
2023-03-03T06:40:32.469Z,39.00
2023-03-03T06:41:27.853Z,39.00
2023-03-03T06:42:23.267Z,39.00
2023-03-03T06:43:18.643Z,39.00
2023-03-03T06:44:14.142Z,39.00
2023-03-03T06:45:09.417Z,45.00
2023-03-03T06:46:04.884Z,45.00
2023-03-03T06:47:00.187Z,45.00
2023-03-03T06:47:55.670Z,45.00
2023-03-03T06:48:50.888Z,45.00
2023-03-03T06:49:46.253Z,45.00
2023-03-03T06:50:41.630Z,45.00
2023-03-03T06:51:36.967Z,45.00
2023-03-03T06:52:32.383Z,45.00
2023-03-03T06:54:51.684Z,50.00
2023-03-03T06:55:46.995Z,50.00
2023-03-03T06:56:44.659Z,50.00
2023-03-03T06:57:37.927Z,50.00
2023-03-03T06:58:33.332Z,56.00
2023-03-03T06:59:28.777Z,56.00
2023-03-03T07:00:24.353Z,56.00
2023-03-03T07:01:19.827Z,61.00
2023-03-03T07:02:15.235Z,61.00
2023-03-03T07:03:10.660Z,61.00
2023-03-03T07:04:06.144Z,61.00
2023-03-03T07:05:01.415Z,61.00
2023-03-03T07:05:56.940Z,61.00
2023-03-03T07:06:52.242Z,61.00
2023-03-03T07:07:47.895Z,67.00
2023-03-03T07:08:43.052Z,67.00
2023-03-03T07:09:38.430Z,67.00
2023-03-03T07:10:33.829Z,67.00
2023-03-03T07:11:29.199Z,67.00
2023-03-03T07:12:24.674Z,67.00
2023-03-03T07:13:20.206Z,67.00
2023-03-03T07:14:15.316Z,67.00
2023-03-03T07:15:10.704Z,67.00
2023-03-03T07:16:06.267Z,67.00
2023-03-03T07:17:01.644Z,67.00
2023-03-03T07:17:57.065Z,67.00
2023-03-03T07:18:52.325Z,67.00
2023-03-03T07:19:47.757Z,67.00
2023-03-03T07:20:43.297Z,67.00
2023-03-03T07:21:38.565Z,67.00
2023-03-03T07:22:33.976Z,67.00
2023-03-03T07:23:29.423Z,73.00
2023-03-03T07:24:24.798Z,73.00
2023-03-03T07:25:20.338Z,73.00
2023-03-03T07:26:15.603Z,73.00
2023-03-03T07:27:11.020Z,78.00
2023-03-03T07:28:06.546Z,78.00
2023-03-03T07:29:01.891Z,78.00
2023-03-03T07:29:57.270Z,78.00
2023-03-03T07:30:52.735Z,78.00
2023-03-03T07:31:48.396Z,84.00
2023-03-03T07:32:43.523Z,84.00
2023-03-03T07:33:38.972Z,84.00
2023-03-03T07:34:34.340Z,84.00
2023-03-03T07:35:29.709Z,90.00
2023-03-03T07:36:25.196Z,90.00
2023-03-03T07:37:20.912Z,90.00
2023-03-03T07:38:16.160Z,90.00
2023-03-03T07:39:11.444Z,90.00
2023-03-03T07:40:06.838Z,95.00
2023-03-03T07:41:02.235Z,95.00
2023-03-03T07:41:57.999Z,101.00
2023-03-03T07:42:53.011Z,101.00
2023-03-03T07:43:48.481Z,106.00
2023-03-03T07:44:44.081Z,106.00
2023-03-03T07:45:39.572Z,106.00
2023-03-03T07:46:35.014Z,106.00
2023-03-03T07:47:30.713Z,106.00
2023-03-03T07:48:26.031Z,106.00
2023-03-03T07:49:21.567Z,106.00
2023-03-03T07:50:17.188Z,106.00
2023-03-03T07:51:12.639Z,106.00
2023-03-03T07:52:08.110Z,106.00
2023-03-03T07:53:03.788Z,112.00
2023-03-03T07:53:59.091Z,112.00
2023-03-03T07:54:54.554Z,112.00
2023-03-03T07:55:50.245Z,112.00
2023-03-03T07:56:45.655Z,112.00
2023-03-03T07:57:40.959Z,112.00
2023-03-03T07:58:36.397Z,118.00
2023-03-03T07:59:34.809Z,118.00
2023-03-03T08:00:27.316Z,123.00
2023-03-03T08:01:22.738Z,123.00
2023-03-03T08:02:18.443Z,123.00
2023-03-03T08:03:13.653Z,123.00
2023-03-03T08:04:09.212Z,123.00
2023-03-03T08:05:05.398Z,123.00
2023-03-03T08:06:00.163Z,123.00
2023-03-03T08:06:55.553Z,123.00
2023-03-03T08:07:51.099Z,123.00
2023-03-03T08:08:46.417Z,129.00
2023-03-03T08:09:41.849Z,129.00
2023-03-03T08:10:37.355Z,129.00
2023-03-03T08:11:32.801Z,129.00
2023-03-03T08:12:28.239Z,129.00
2023-03-03T08:13:23.709Z,129.00
2023-03-03T08:14:19.347Z,129.00
2023-03-03T08:15:14.770Z,129.00
2023-03-03T08:16:10.279Z,135.00
2023-03-03T08:17:05.872Z,135.00
2023-03-03T08:18:01.286Z,140.00
2023-03-03T08:18:56.755Z,146.00
2023-03-03T08:19:52.441Z,151.00
2023-03-03T08:20:47.806Z,151.00
2023-03-03T08:21:43.103Z,157.00
2023-03-03T08:22:38.549Z,157.00
2023-03-03T08:23:33.966Z,157.00
2023-03-03T08:24:29.437Z,157.00
2023-03-03T08:25:24.905Z,157.00
2023-03-03T08:26:20.502Z,163.00
2023-03-03T08:27:15.964Z,163.00
2023-03-03T08:28:11.431Z,168.00
2023-03-03T08:29:07.707Z,180.00
2023-03-03T08:30:02.533Z,185.00
2023-03-03T08:31:12.476Z,191.00
2023-03-03T08:31:54.494Z,196.00
2023-03-03T08:32:48.977Z,202.00
2023-03-03T08:33:44.372Z,202.00
2023-03-03T08:34:39.803Z,208.00
2023-03-03T08:35:35.206Z,213.00
2023-03-03T08:36:30.545Z,225.00
2023-03-03T08:37:26.170Z,230.00
2023-03-03T08:38:21.521Z,253.00
2023-03-03T08:39:16.956Z,275.00
2023-03-03T08:40:12.420Z,309.00
2023-03-03T08:41:08.115Z,337.00
2023-03-03T08:42:03.431Z,348.00
2023-03-03T08:42:58.892Z,365.00
2023-03-03T08:43:54.470Z,365.00
2023-03-03T08:44:49.905Z,360.00
2023-03-03T08:45:45.672Z,354.00
2023-03-03T08:46:40.940Z,354.00
2023-03-03T08:47:36.283Z,354.00
2023-03-03T08:48:31.744Z,354.00
2023-03-03T08:49:27.314Z,354.00
2023-03-03T08:50:22.879Z,354.00
2023-03-03T08:51:18.277Z,348.00
2023-03-03T08:52:13.820Z,354.00
2023-03-03T08:53:09.106Z,354.00
2023-03-03T08:54:04.730Z,360.00
2023-03-03T08:55:00.179Z,360.00
2023-03-03T08:55:55.732Z,371.00
2023-03-03T08:56:51.203Z,371.00
2023-03-03T08:57:46.523Z,365.00
2023-03-03T08:58:49.807Z,365.00
2023-03-03T08:59:38.460Z,365.00
2023-03-03T09:00:32.806Z,360.00
2023-03-03T09:01:28.354Z,360.00
2023-03-03T09:02:23.679Z,365.00
2023-03-03T09:03:19.167Z,376.00
2023-03-03T09:04:14.559Z,382.00
2023-03-03T09:05:09.882Z,393.00
2023-03-03T09:06:05.336Z,393.00
2023-03-03T09:07:00.962Z,399.00
2023-03-03T09:07:56.398Z,399.00
2023-03-03T09:08:51.928Z,393.00
2023-03-03T09:09:47.772Z,393.00
2023-03-03T09:10:42.698Z,382.00
2023-03-03T09:11:38.248Z,388.00
2023-03-03T09:12:33.567Z,376.00
2023-03-03T09:13:29.007Z,371.00
2023-03-03T09:14:24.522Z,365.00
2023-03-03T09:15:19.952Z,365.00
2023-03-03T09:16:15.495Z,360.00
2023-03-03T09:17:10.856Z,365.00
2023-03-03T09:18:06.435Z,371.00
2023-03-03T09:19:01.899Z,371.00
2023-03-03T09:19:57.536Z,382.00
2023-03-03T09:20:52.830Z,382.00
2023-03-03T09:21:48.306Z,388.00
2023-03-03T09:22:43.754Z,388.00
2023-03-03T09:23:39.362Z,382.00
2023-03-03T09:24:34.889Z,376.00
2023-03-03T09:25:30.217Z,376.00
2023-03-03T09:26:25.855Z,371.00
2023-03-03T09:27:21.307Z,360.00
2023-03-03T09:28:16.737Z,360.00
2023-03-03T09:29:12.166Z,354.00
2023-03-03T09:30:07.653Z,354.00
2023-03-03T09:31:04.411Z,360.00
2023-03-03T09:31:58.707Z,360.00
2023-03-03T09:32:54.164Z,360.00
2023-03-03T09:33:49.638Z,360.00
2023-03-03T09:34:45.222Z,360.00
2023-03-03T09:35:40.557Z,354.00
2023-03-03T09:36:35.911Z,348.00
2023-03-03T09:37:31.501Z,343.00
2023-03-03T09:38:26.971Z,337.00
2023-03-03T09:39:22.434Z,331.00
2023-03-03T09:40:17.889Z,326.00
2023-03-03T09:41:13.449Z,326.00
2023-03-03T09:42:08.950Z,337.00
2023-03-03T09:43:04.408Z,343.00
2023-03-03T09:44:00.755Z,348.00
2023-03-03T09:44:55.238Z,354.00
2023-03-03T09:45:50.694Z,360.00
2023-03-03T09:46:46.299Z,360.00
2023-03-03T09:47:41.642Z,360.00
2023-03-03T09:48:37.100Z,365.00
2023-03-03T09:49:32.878Z,365.00
2023-03-03T09:50:28.198Z,371.00
2023-03-03T09:51:23.728Z,371.00
2023-03-03T09:52:19.062Z,376.00
2023-03-03T09:53:14.533Z,382.00
2023-03-03T09:54:10.128Z,382.00
2023-03-03T09:55:05.619Z,376.00
2023-03-03T09:56:01.079Z,371.00
2023-03-03T09:56:56.533Z,371.00
2023-03-03T09:58:08.202Z,371.00
2023-03-03T09:58:48.454Z,376.00
2023-03-03T09:59:42.820Z,382.00
2023-03-03T10:00:38.414Z,393.00
2023-03-03T10:01:33.882Z,399.00
2023-03-03T10:02:29.260Z,393.00
2023-03-03T10:03:24.918Z,393.00
2023-03-03T10:04:20.457Z,393.00
2023-03-03T10:05:15.760Z,399.00
2023-03-03T10:06:11.406Z,410.00
2023-03-03T10:07:06.738Z,421.00
2023-03-03T10:08:02.230Z,427.00
2023-03-03T10:08:57.681Z,433.00
2023-03-03T10:09:53.186Z,438.00
2023-03-03T10:10:48.546Z,438.00
2023-03-03T10:11:44.142Z,433.00
2023-03-03T10:12:39.565Z,433.00
2023-03-03T10:13:35.025Z,433.00
2023-03-03T10:14:30.659Z,438.00
2023-03-03T10:15:26.255Z,438.00
2023-03-03T10:16:21.661Z,444.00
2023-03-03T10:17:17.112Z,444.00
2023-03-03T10:18:12.534Z,438.00
2023-03-03T10:19:08.029Z,427.00
2023-03-03T10:20:03.574Z,410.00
2023-03-03T10:20:59.040Z,399.00
2023-03-03T10:21:54.499Z,393.00
2023-03-03T10:22:50.002Z,399.00
2023-03-03T10:23:45.421Z,405.00
2023-03-03T10:24:40.889Z,416.00
2023-03-03T10:25:36.436Z,427.00
2023-03-03T10:26:44.312Z,438.00
2023-03-03T10:27:28.402Z,444.00
2023-03-03T10:28:22.906Z,444.00
2023-03-03T10:29:22.943Z,450.00
2023-03-03T10:30:13.984Z,455.00
2023-03-03T10:31:14.248Z,461.00
2023-03-03T10:32:06.166Z,466.00
2023-03-03T10:33:00.553Z,478.00
2023-03-03T10:33:55.974Z,478.00
2023-03-03T10:34:51.622Z,483.00
2023-03-03T10:36:00.941Z,483.00
2023-03-03T10:36:43.377Z,478.00
2023-03-03T10:37:37.867Z,466.00
2023-03-03T10:38:33.486Z,461.00
2023-03-03T10:39:29.007Z,455.00
2023-03-03T10:40:24.622Z,450.00
2023-03-03T10:41:19.967Z,444.00
2023-03-03T10:42:15.399Z,444.00
2023-03-03T10:43:15.339Z,438.00
2023-03-03T10:44:07.338Z,438.00
2023-03-03T10:45:02.193Z,433.00
2023-03-03T10:45:57.916Z,438.00
2023-03-03T10:46:52.811Z,444.00
2023-03-03T10:47:48.248Z,455.00
2023-03-03T10:48:43.749Z,461.00
2023-03-03T10:49:39.237Z,472.00
2023-03-03T10:50:34.879Z,478.00
2023-03-03T10:51:30.225Z,495.00
2023-03-03T10:52:25.706Z,495.00
2023-03-03T10:53:21.374Z,500.00
2023-03-03T10:54:16.828Z,495.00
2023-03-03T10:55:12.573Z,495.00
2023-03-03T10:56:07.832Z,489.00
2023-03-03T10:57:03.335Z,483.00
2023-03-03T10:57:58.903Z,478.00
2023-03-03T10:58:54.416Z,472.00
2023-03-03T10:59:49.803Z,466.00
2023-03-03T11:00:45.361Z,461.00
2023-03-03T11:01:40.758Z,455.00
2023-03-03T11:02:36.207Z,450.00
2023-03-03T11:03:31.785Z,450.00
2023-03-03T11:04:27.263Z,450.00
2023-03-03T11:05:23.673Z,455.00
2023-03-03T11:06:18.391Z,472.00
2023-03-03T11:07:13.818Z,489.00
2023-03-03T11:08:09.341Z,495.00
2023-03-03T11:09:04.885Z,500.00
2023-03-03T11:10:00.897Z,506.00
2023-03-03T11:10:55.768Z,500.00
2023-03-03T11:11:51.340Z,506.00
2023-03-03T11:12:46.490Z,511.00
2023-03-03T11:13:42.033Z,517.00
2023-03-03T11:14:37.583Z,523.00
2023-03-03T11:15:33.044Z,523.00
2023-03-03T11:16:28.739Z,517.00
2023-03-03T11:17:24.251Z,511.00
2023-03-03T11:18:20.223Z,506.00
2023-03-03T11:19:15.107Z,506.00
2023-03-03T11:20:10.490Z,511.00
2023-03-03T11:21:06.242Z,517.00
2023-03-03T11:22:01.970Z,528.00
2023-03-03T11:22:57.621Z,540.00
2023-03-03T11:23:52.647Z,545.00
2023-03-03T11:24:48.181Z,556.00
2023-03-03T11:25:43.695Z,562.00
2023-03-03T11:26:39.225Z,562.00
2023-03-03T11:28:59.402Z,579.00
2023-03-03T11:29:54.638Z,590.00
2023-03-03T11:30:50.237Z,601.00
2023-03-03T11:31:45.638Z,624.00
2023-03-03T11:32:41.137Z,652.00
2023-03-03T11:33:36.751Z,675.00
2023-03-03T11:34:32.307Z,720.00
2023-03-03T11:35:27.870Z,748.00
2023-03-03T11:36:23.490Z,781.00
2023-03-03T11:37:19.031Z,821.00
2023-03-03T11:38:14.536Z,843.00
2023-03-03T11:39:10.174Z,860.00
2023-03-03T11:40:05.799Z,860.00
2023-03-03T11:41:01.233Z,855.00
2023-03-03T11:41:56.705Z,866.00
2023-03-03T11:42:52.218Z,866.00
2023-03-03T11:43:47.881Z,877.00
2023-03-03T11:44:43.406Z,883.00
2023-03-03T11:45:39.067Z,871.00
2023-03-03T11:46:34.414Z,855.00
2023-03-03T11:47:31.803Z,838.00
2023-03-03T11:48:25.421Z,821.00
2023-03-03T11:49:20.903Z,810.00
2023-03-03T11:50:16.440Z,810.00
2023-03-03T11:51:12.074Z,793.00
2023-03-03T11:52:07.330Z,781.00
2023-03-03T11:53:02.837Z,748.00
2023-03-03T11:53:58.364Z,725.00
2023-03-03T11:54:53.872Z,708.00
2023-03-03T11:55:49.383Z,691.00
2023-03-03T11:56:44.829Z,691.00
2023-03-03T11:59:24.915Z,686.00
2023-03-03T12:00:19.749Z,675.00
2023-03-03T12:01:15.254Z,669.00
2023-03-03T12:02:11.045Z,680.00
2023-03-03T12:03:06.429Z,697.00
2023-03-03T12:04:01.978Z,720.00
2023-03-03T12:04:58.450Z,742.00
2023-03-03T12:05:53.100Z,742.00
2023-03-03T12:06:48.343Z,742.00
2023-03-03T12:07:43.839Z,731.00
2023-03-03T12:08:39.238Z,731.00
2023-03-03T12:09:34.717Z,708.00